sensor_id;sensor_type;location;lat;lon;timestamp;P1;durP1;ratioP1;P2;durP2;ratioP2
21521;SDS011;10922;45.572;10.002;2023-01-16T00:01:53;57.92;;;38.45;;
21521;SDS011;10922;45.572;10.002;2023-01-16T00:04:21;58.83;;;37.65;;
21521;SDS011;10922;45.572;10.002;2023-01-16T00:06:47;65.43;;;41.28;;
21521;SDS011;10922;45.572;10.002;2023-01-16T00:09:13;72.60;;;42.63;;
21521;SDS011;10922;45.572;10.002;2023-01-16T00:11:39;69.03;;;41.77;;
21521;SDS011;10922;45.572;10.002;2023-01-16T00:14:05;71.93;;;42.03;;
21521;SDS011;10922;45.572;10.002;2023-01-16T00:16:30;78.87;;;44.63;;
21521;SDS011;10922;45.572;10.002;2023-01-16T00:18:58;77.10;;;44.47;;
21521;SDS011;10922;45.572;10.002;2023-01-16T00:21:23;79.00;;;45.30;;
21521;SDS011;10922;45.572;10.002;2023-01-16T00:23:51;80.23;;;45.30;;
21521;SDS011;10922;45.572;10.002;2023-01-16T00:26:21;77.97;;;44.70;;
21521;SDS011;10922;45.572;10.002;2023-01-16T00:28:47;76.78;;;43.80;;
21521;SDS011;10922;45.572;10.002;2023-01-16T00:31:13;77.78;;;45.03;;
21521;SDS011;10922;45.572;10.002;2023-01-16T00:33:39;82.33;;;45.87;;
21521;SDS011;10922;45.572;10.002;2023-01-16T00:36:04;81.63;;;46.60;;
21521;SDS011;10922;45.572;10.002;2023-01-16T00:38:30;73.53;;;44.10;;
21521;SDS011;10922;45.572;10.002;2023-01-16T00:40:57;70.95;;;43.78;;
21521;SDS011;10922;45.572;10.002;2023-01-16T00:43:23;76.20;;;44.88;;
21521;SDS011;10922;45.572;10.002;2023-01-16T00:45:49;75.83;;;44.13;;
21521;SDS011;10922;45.572;10.002;2023-01-16T00:48:14;75.72;;;44.47;;
21521;SDS011;10922;45.572;10.002;2023-01-16T00:50:40;78.55;;;45.58;;
21521;SDS011;10922;45.572;10.002;2023-01-16T00:53:06;68.30;;;44.00;;
21521;SDS011;10922;45.572;10.002;2023-01-16T00:55:32;77.57;;;46.47;;
21521;SDS011;10922;45.572;10.002;2023-01-16T00:58:00;78.40;;;46.90;;
21521;SDS011;10922;45.572;10.002;2023-01-16T01:00:26;91.60;;;51.10;;
21521;SDS011;10922;45.572;10.002;2023-01-16T01:02:52;80.13;;;49.28;;
21521;SDS011;10922;45.572;10.002;2023-01-16T01:05:17;79.68;;;49.30;;
21521;SDS011;10922;45.572;10.002;2023-01-16T01:07:43;77.20;;;49.13;;
21521;SDS011;10922;45.572;10.002;2023-01-16T01:10:09;89.95;;;50.72;;
21521;SDS011;10922;45.572;10.002;2023-01-16T01:12:35;90.60;;;53.00;;
21521;SDS011;10922;45.572;10.002;2023-01-16T01:15:01;90.57;;;52.35;;
21521;SDS011;10922;45.572;10.002;2023-01-16T01:17:27;87.65;;;52.90;;
21521;SDS011;10922;45.572;10.002;2023-01-16T01:19:53;98.30;;;54.83;;
21521;SDS011;10922;45.572;10.002;2023-01-16T01:22:18;116.22;;;58.17;;
21521;SDS011;10922;45.572;10.002;2023-01-16T01:24:47;111.75;;;60.50;;
21521;SDS011;10922;45.572;10.002;2023-01-16T01:27:14;118.93;;;62.67;;
21521;SDS011;10922;45.572;10.002;2023-01-16T01:29:41;112.97;;;61.45;;
21521;SDS011;10922;45.572;10.002;2023-01-16T01:32:07;131.10;;;65.32;;
21521;SDS011;10922;45.572;10.002;2023-01-16T01:34:33;112.20;;;63.10;;
21521;SDS011;10922;45.572;10.002;2023-01-16T01:37:06;125.97;;;65.20;;
21521;SDS011;10922;45.572;10.002;2023-01-16T01:39:32;126.57;;;65.05;;
21521;SDS011;10922;45.572;10.002;2023-01-16T01:41:59;115.25;;;63.42;;
21521;SDS011;10922;45.572;10.002;2023-01-16T01:47:36;97.10;;;57.95;;
21521;SDS011;10922;45.572;10.002;2023-01-16T01:50:30;108.90;;;58.85;;
21521;SDS011;10922;45.572;10.002;2023-01-16T01:53:00;107.57;;;59.25;;
21521;SDS011;10922;45.572;10.002;2023-01-16T01:55:32;91.07;;;54.17;;
21521;SDS011;10922;45.572;10.002;2023-01-16T01:57:58;99.80;;;56.27;;
21521;SDS011;10922;45.572;10.002;2023-01-16T02:00:28;108.78;;;57.65;;
21521;SDS011;10922;45.572;10.002;2023-01-16T02:05:24;147.33;;;64.53;;
21521;SDS011;10922;45.572;10.002;2023-01-16T02:07:53;148.32;;;67.32;;
21521;SDS011;10922;45.572;10.002;2023-01-16T02:10:29;165.38;;;71.10;;
21521;SDS011;10922;45.572;10.002;2023-01-16T02:13:08;147.63;;;70.35;;
21521;SDS011;10922;45.572;10.002;2023-01-16T02:15:34;146.70;;;69.20;;
21521;SDS011;10922;45.572;10.002;2023-01-16T02:18:01;151.15;;;72.25;;
21521;SDS011;10922;45.572;10.002;2023-01-16T02:21:52;162.55;;;72.45;;
21521;SDS011;10922;45.572;10.002;2023-01-16T02:37:11;116.25;;;63.03;;
21521;SDS011;10922;45.572;10.002;2023-01-16T02:42:32;104.13;;;58.45;;
21521;SDS011;10922;45.572;10.002;2023-01-16T02:54:05;97.45;;;56.47;;
21521;SDS011;10922;45.572;10.002;2023-01-16T02:56:39;98.68;;;56.00;;
21521;SDS011;10922;45.572;10.002;2023-01-16T02:59:10;101.13;;;58.22;;
21521;SDS011;10922;45.572;10.002;2023-01-16T03:01:38;108.53;;;58.65;;
21521;SDS011;10922;45.572;10.002;2023-01-16T03:04:34;104.95;;;60.60;;
21521;SDS011;10922;45.572;10.002;2023-01-16T03:20:50;125.68;;;64.90;;
21521;SDS011;10922;45.572;10.002;2023-01-16T03:25:58;109.50;;;60.33;;
21521;SDS011;10922;45.572;10.002;2023-01-16T03:31:20;105.30;;;58.60;;
21521;SDS011;10922;45.572;10.002;2023-01-16T03:37:04;99.00;;;56.78;;
21521;SDS011;10922;45.572;10.002;2023-01-16T03:39:35;100.50;;;55.72;;
21521;SDS011;10922;45.572;10.002;2023-01-16T03:42:07;104.43;;;58.42;;
21521;SDS011;10922;45.572;10.002;2023-01-16T03:44:37;107.43;;;56.35;;
21521;SDS011;10922;45.572;10.002;2023-01-16T03:47:09;110.97;;;57.42;;
21521;SDS011;10922;45.572;10.002;2023-01-16T03:49:43;119.70;;;58.25;;
21521;SDS011;10922;45.572;10.002;2023-01-16T03:52:14;116.80;;;60.67;;
21521;SDS011;10922;45.572;10.002;2023-01-16T03:54:57;120.10;;;59.97;;
21521;SDS011;10922;45.572;10.002;2023-01-16T03:57:43;121.10;;;60.58;;
21521;SDS011;10922;45.572;10.002;2023-01-16T04:00:17;113.15;;;57.78;;
21521;SDS011;10922;45.572;10.002;2023-01-16T04:05:48;105.43;;;55.28;;
21521;SDS011;10922;45.572;10.002;2023-01-16T04:08:24;98.80;;;52.10;;
21521;SDS011;10922;45.572;10.002;2023-01-16T04:10:55;100.75;;;51.88;;
21521;SDS011;10922;45.572;10.002;2023-01-16T04:13:22;96.38;;;50.90;;
21521;SDS011;10922;45.572;10.002;2023-01-16T04:15:56;87.55;;;47.25;;
21521;SDS011;10922;45.572;10.002;2023-01-16T04:18:25;81.85;;;46.45;;
21521;SDS011;10922;45.572;10.002;2023-01-16T04:20:55;82.93;;;44.87;;
21521;SDS011;10922;45.572;10.002;2023-01-16T04:23:21;88.63;;;48.10;;
21521;SDS011;10922;45.572;10.002;2023-01-16T04:25:47;82.03;;;45.13;;
21521;SDS011;10922;45.572;10.002;2023-01-16T04:28:13;76.72;;;40.08;;
21521;SDS011;10922;45.572;10.002;2023-01-16T04:30:38;78.33;;;42.13;;
21521;SDS011;10922;45.572;10.002;2023-01-16T04:33:04;69.80;;;39.88;;
21521;SDS011;10922;45.572;10.002;2023-01-16T04:35:30;72.00;;;40.37;;
21521;SDS011;10922;45.572;10.002;2023-01-16T04:37:57;67.78;;;37.70;;
21521;SDS011;10922;45.572;10.002;2023-01-16T04:40:23;64.10;;;36.45;;
21521;SDS011;10922;45.572;10.002;2023-01-16T04:42:49;59.42;;;34.47;;
21521;SDS011;10922;45.572;10.002;2023-01-16T04:45:14;55.77;;;32.90;;
21521;SDS011;10922;45.572;10.002;2023-01-16T04:47:44;57.50;;;34.58;;
21521;SDS011;10922;45.572;10.002;2023-01-16T04:50:11;56.72;;;34.22;;
21521;SDS011;10922;45.572;10.002;2023-01-16T04:52:37;68.28;;;38.97;;
21521;SDS011;10922;45.572;10.002;2023-01-16T04:55:03;65.43;;;37.43;;
21521;SDS011;10922;45.572;10.002;2023-01-16T04:57:29;67.20;;;37.88;;
21521;SDS011;10922;45.572;10.002;2023-01-16T04:59:54;61.00;;;35.30;;
21521;SDS011;10922;45.572;10.002;2023-01-16T05:02:20;53.40;;;31.95;;
21521;SDS011;10922;45.572;10.002;2023-01-16T05:04:46;46.97;;;30.23;;
21521;SDS011;10922;45.572;10.002;2023-01-16T05:07:12;51.83;;;32.60;;
21521;SDS011;10922;45.572;10.002;2023-01-16T05:09:37;52.63;;;33.30;;
21521;SDS011;10922;45.572;10.002;2023-01-16T05:12:06;63.72;;;36.47;;
21521;SDS011;10922;45.572;10.002;2023-01-16T05:14:32;56.28;;;34.53;;
21521;SDS011;10922;45.572;10.002;2023-01-16T05:16:57;56.67;;;35.53;;
21521;SDS011;10922;45.572;10.002;2023-01-16T05:19:23;59.35;;;35.97;;
21521;SDS011;10922;45.572;10.002;2023-01-16T05:21:49;60.37;;;36.10;;
21521;SDS011;10922;45.572;10.002;2023-01-16T05:24:14;55.73;;;33.97;;
21521;SDS011;10922;45.572;10.002;2023-01-16T05:26:40;54.90;;;34.08;;
21521;SDS011;10922;45.572;10.002;2023-01-16T05:29:06;46.67;;;30.20;;
21521;SDS011;10922;45.572;10.002;2023-01-16T05:31:31;50.40;;;31.88;;
21521;SDS011;10922;45.572;10.002;2023-01-16T05:33:57;56.45;;;35.17;;
21521;SDS011;10922;45.572;10.002;2023-01-16T05:36:23;63.77;;;38.00;;
21521;SDS011;10922;45.572;10.002;2023-01-16T05:38:48;43.78;;;28.50;;
21521;SDS011;10922;45.572;10.002;2023-01-16T05:41:15;48.30;;;29.88;;
21521;SDS011;10922;45.572;10.002;2023-01-16T05:43:41;54.03;;;32.35;;
21521;SDS011;10922;45.572;10.002;2023-01-16T05:46:24;59.58;;;35.72;;
21521;SDS011;10922;45.572;10.002;2023-01-16T05:48:50;55.17;;;34.20;;
21521;SDS011;10922;45.572;10.002;2023-01-16T05:51:15;58.93;;;34.07;;
21521;SDS011;10922;45.572;10.002;2023-01-16T05:53:42;54.83;;;34.10;;
21521;SDS011;10922;45.572;10.002;2023-01-16T05:56:08;59.47;;;35.45;;
21521;SDS011;10922;45.572;10.002;2023-01-16T05:58:35;61.95;;;38.47;;
21521;SDS011;10922;45.572;10.002;2023-01-16T06:01:01;44.58;;;28.50;;
21521;SDS011;10922;45.572;10.002;2023-01-16T06:03:27;36.35;;;24.65;;
21521;SDS011;10922;45.572;10.002;2023-01-16T06:05:53;33.28;;;22.33;;
21521;SDS011;10922;45.572;10.002;2023-01-16T06:08:18;30.03;;;21.77;;
21521;SDS011;10922;45.572;10.002;2023-01-16T06:10:44;31.67;;;22.70;;
21521;SDS011;10922;45.572;10.002;2023-01-16T06:13:10;33.53;;;22.52;;
21521;SDS011;10922;45.572;10.002;2023-01-16T06:15:35;32.60;;;22.83;;
21521;SDS011;10922;45.572;10.002;2023-01-16T06:18:01;30.48;;;21.63;;
21521;SDS011;10922;45.572;10.002;2023-01-16T06:20:28;29.77;;;21.60;;
21521;SDS011;10922;45.572;10.002;2023-01-16T06:22:53;33.03;;;22.38;;
21521;SDS011;10922;45.572;10.002;2023-01-16T06:25:19;36.10;;;24.47;;
21521;SDS011;10922;45.572;10.002;2023-01-16T06:27:51;34.95;;;24.08;;
21521;SDS011;10922;45.572;10.002;2023-01-16T06:30:17;39.53;;;25.58;;
21521;SDS011;10922;45.572;10.002;2023-01-16T06:32:43;44.80;;;27.30;;
21521;SDS011;10922;45.572;10.002;2023-01-16T06:35:13;48.40;;;30.58;;
21521;SDS011;10922;45.572;10.002;2023-01-16T06:37:38;53.53;;;28.80;;
21521;SDS011;10922;45.572;10.002;2023-01-16T06:40:04;147.00;;;39.42;;
21521;SDS011;10922;45.572;10.002;2023-01-16T06:42:30;154.63;;;42.80;;
21521;SDS011;10922;45.572;10.002;2023-01-16T06:44:56;79.03;;;33.40;;
21521;SDS011;10922;45.572;10.002;2023-01-16T06:47:22;104.17;;;35.27;;
21521;SDS011;10922;45.572;10.002;2023-01-16T06:49:47;136.75;;;41.58;;
21521;SDS011;10922;45.572;10.002;2023-01-16T06:52:13;128.60;;;40.47;;
21521;SDS011;10922;45.572;10.002;2023-01-16T06:54:38;141.83;;;40.50;;
21521;SDS011;10922;45.572;10.002;2023-01-16T06:57:07;130.63;;;39.83;;
21521;SDS011;10922;45.572;10.002;2023-01-16T06:59:33;157.17;;;42.37;;
21521;SDS011;10922;45.572;10.002;2023-01-16T07:01:59;361.10;;;62.10;;
21521;SDS011;10922;45.572;10.002;2023-01-16T07:04:24;243.77;;;48.13;;
21521;SDS011;10922;45.572;10.002;2023-01-16T07:06:50;179.60;;;38.40;;
21521;SDS011;10922;45.572;10.002;2023-01-16T07:09:16;184.55;;;40.63;;
21521;SDS011;10922;45.572;10.002;2023-01-16T07:11:42;222.23;;;42.85;;
21521;SDS011;10922;45.572;10.002;2023-01-16T07:14:08;146.53;;;35.67;;
21521;SDS011;10922;45.572;10.002;2023-01-16T07:16:52;141.75;;;33.95;;
21521;SDS011;10922;45.572;10.002;2023-01-16T07:19:36;112.40;;;28.95;;
21521;SDS011;10922;45.572;10.002;2023-01-16T07:22:20;169.97;;;31.77;;
21521;SDS011;10922;45.572;10.002;2023-01-16T07:25:09;242.93;;;40.50;;
21521;SDS011;10922;45.572;10.002;2023-01-16T07:27:38;229.87;;;37.67;;
21521;SDS011;10922;45.572;10.002;2023-01-16T07:30:05;293.88;;;41.88;;
21521;SDS011;10922;45.572;10.002;2023-01-16T07:32:32;307.90;;;44.20;;
21521;SDS011;10922;45.572;10.002;2023-01-16T07:34:58;198.70;;;38.07;;
21521;SDS011;10922;45.572;10.002;2023-01-16T07:37:24;290.63;;;44.38;;
21521;SDS011;10922;45.572;10.002;2023-01-16T07:39:49;188.70;;;34.92;;
21521;SDS011;10922;45.572;10.002;2023-01-16T07:42:15;219.20;;;38.60;;
21521;SDS011;10922;45.572;10.002;2023-01-16T07:44:40;259.83;;;40.22;;
21521;SDS011;10922;45.572;10.002;2023-01-16T07:47:06;203.03;;;34.87;;
21521;SDS011;10922;45.572;10.002;2023-01-16T07:49:32;271.17;;;41.60;;
21521;SDS011;10922;45.572;10.002;2023-01-16T07:51:57;335.63;;;47.80;;
21521;SDS011;10922;45.572;10.002;2023-01-16T07:54:23;438.67;;;55.40;;
21521;SDS011;10922;45.572;10.002;2023-01-16T07:56:49;513.75;;;66.88;;
21521;SDS011;10922;45.572;10.002;2023-01-16T07:59:14;464.52;;;69.20;;
21521;SDS011;10922;45.572;10.002;2023-01-16T08:01:40;484.97;;;69.10;;
21521;SDS011;10922;45.572;10.002;2023-01-16T08:04:07;573.30;;;81.32;;
21521;SDS011;10922;45.572;10.002;2023-01-16T08:06:33;399.67;;;61.07;;
21521;SDS011;10922;45.572;10.002;2023-01-16T08:08:59;378.50;;;64.85;;
21521;SDS011;10922;45.572;10.002;2023-01-16T08:11:25;880.28;;;130.00;;
21521;SDS011;10922;45.572;10.002;2023-01-16T08:14:04;558.77;;;79.70;;
21521;SDS011;10922;45.572;10.002;2023-01-16T08:16:31;197.38;;;48.00;;
21521;SDS011;10922;45.572;10.002;2023-01-16T08:18:57;273.00;;;53.38;;
21521;SDS011;10922;45.572;10.002;2023-01-16T08:21:23;147.50;;;39.47;;
21521;SDS011;10922;45.572;10.002;2023-01-16T08:23:49;174.33;;;42.57;;
21521;SDS011;10922;45.572;10.002;2023-01-16T08:26:14;318.70;;;53.08;;
21521;SDS011;10922;45.572;10.002;2023-01-16T08:28:40;141.47;;;36.87;;
21521;SDS011;10922;45.572;10.002;2023-01-16T08:31:07;506.95;;;73.25;;
21521;SDS011;10922;45.572;10.002;2023-01-16T08:33:36;251.45;;;48.38;;
21521;SDS011;10922;45.572;10.002;2023-01-16T08:36:07;143.63;;;37.50;;
21521;SDS011;10922;45.572;10.002;2023-01-16T08:38:34;151.10;;;37.35;;
21521;SDS011;10922;45.572;10.002;2023-01-16T08:41:00;101.00;;;34.97;;
21521;SDS011;10922;45.572;10.002;2023-01-16T08:43:26;97.38;;;34.58;;
21521;SDS011;10922;45.572;10.002;2023-01-16T08:46:17;86.63;;;33.47;;
21521;SDS011;10922;45.572;10.002;2023-01-16T08:49:10;96.17;;;34.27;;
21521;SDS011;10922;45.572;10.002;2023-01-16T08:51:57;106.45;;;37.72;;
21521;SDS011;10922;45.572;10.002;2023-01-16T08:54:23;173.85;;;42.60;;
21521;SDS011;10922;45.572;10.002;2023-01-16T08:56:49;134.75;;;38.65;;
21521;SDS011;10922;45.572;10.002;2023-01-16T08:59:15;78.37;;;32.73;;
21521;SDS011;10922;45.572;10.002;2023-01-16T09:01:41;60.85;;;30.92;;
21521;SDS011;10922;45.572;10.002;2023-01-16T09:04:08;76.78;;;31.42;;
21521;SDS011;10922;45.572;10.002;2023-01-16T09:06:33;80.90;;;31.87;;
21521;SDS011;10922;45.572;10.002;2023-01-16T09:09:02;74.70;;;30.90;;
21521;SDS011;10922;45.572;10.002;2023-01-16T09:11:30;54.83;;;29.45;;
21521;SDS011;10922;45.572;10.002;2023-01-16T09:14:14;92.32;;;30.55;;
21521;SDS011;10922;45.572;10.002;2023-01-16T09:16:40;66.65;;;29.45;;
21521;SDS011;10922;45.572;10.002;2023-01-16T09:19:05;91.07;;;33.08;;
21521;SDS011;10922;45.572;10.002;2023-01-16T09:21:31;97.27;;;33.43;;
21521;SDS011;10922;45.572;10.002;2023-01-16T09:23:57;84.15;;;32.53;;
21521;SDS011;10922;45.572;10.002;2023-01-16T09:26:22;122.55;;;35.63;;
21521;SDS011;10922;45.572;10.002;2023-01-16T09:28:48;106.03;;;33.30;;
21521;SDS011;10922;45.572;10.002;2023-01-16T09:31:14;68.28;;;29.40;;
21521;SDS011;10922;45.572;10.002;2023-01-16T09:33:40;60.92;;;28.30;;
21521;SDS011;10922;45.572;10.002;2023-01-16T09:36:06;55.40;;;29.23;;
21521;SDS011;10922;45.572;10.002;2023-01-16T09:38:32;77.45;;;32.90;;
21521;SDS011;10922;45.572;10.002;2023-01-16T09:40:58;58.17;;;28.25;;
21521;SDS011;10922;45.572;10.002;2023-01-16T09:43:40;58.50;;;28.77;;
21521;SDS011;10922;45.572;10.002;2023-01-16T09:46:16;52.35;;;29.10;;
21521;SDS011;10922;45.572;10.002;2023-01-16T09:51:14;46.70;;;26.00;;
21521;SDS011;10922;45.572;10.002;2023-01-16T09:53:49;44.00;;;25.98;;
21521;SDS011;10922;45.572;10.002;2023-01-16T09:57:00;44.03;;;26.77;;
21521;SDS011;10922;45.572;10.002;2023-01-16T09:59:46;42.63;;;25.35;;
21521;SDS011;10922;45.572;10.002;2023-01-16T10:02:19;35.22;;;23.15;;
21521;SDS011;10922;45.572;10.002;2023-01-16T10:04:52;33.88;;;23.20;;
21521;SDS011;10922;45.572;10.002;2023-01-16T10:15:55;35.53;;;23.35;;
21521;SDS011;10922;45.572;10.002;2023-01-16T10:21:27;36.70;;;24.23;;
21521;SDS011;10922;45.572;10.002;2023-01-16T10:26:29;32.40;;;21.97;;
21521;SDS011;10922;45.572;10.002;2023-01-16T10:31:25;34.90;;;23.43;;
21521;SDS011;10922;45.572;10.002;2023-01-16T10:34:17;33.53;;;22.40;;
21521;SDS011;10922;45.572;10.002;2023-01-16T10:36:54;30.70;;;21.95;;
21521;SDS011;10922;45.572;10.002;2023-01-16T10:39:24;28.70;;;21.27;;
21521;SDS011;10922;45.572;10.002;2023-01-16T10:45:00;29.80;;;20.65;;
21521;SDS011;10922;45.572;10.002;2023-01-16T10:47:56;31.35;;;21.08;;
21521;SDS011;10922;45.572;10.002;2023-01-16T10:50:40;30.98;;;21.13;;
21521;SDS011;10922;45.572;10.002;2023-01-16T10:53:08;27.37;;;19.87;;
21521;SDS011;10922;45.572;10.002;2023-01-16T10:55:35;28.27;;;19.65;;
21521;SDS011;10922;45.572;10.002;2023-01-16T10:58:15;26.60;;;19.23;;
21521;SDS011;10922;45.572;10.002;2023-01-16T11:00:52;28.17;;;19.83;;
21521;SDS011;10922;45.572;10.002;2023-01-16T11:03:33;32.85;;;20.92;;
21521;SDS011;10922;45.572;10.002;2023-01-16T11:06:12;28.67;;;20.60;;
21521;SDS011;10922;45.572;10.002;2023-01-16T11:08:51;26.05;;;19.17;;
21521;SDS011;10922;45.572;10.002;2023-01-16T11:11:18;26.20;;;19.90;;
21521;SDS011;10922;45.572;10.002;2023-01-16T11:14:05;27.70;;;19.65;;
21521;SDS011;10922;45.572;10.002;2023-01-16T11:17:50;29.42;;;20.08;;
21521;SDS011;10922;45.572;10.002;2023-01-16T11:22:53;26.70;;;19.55;;
21521;SDS011;10922;45.572;10.002;2023-01-16T11:25:22;28.15;;;21.20;;
21521;SDS011;10922;45.572;10.002;2023-01-16T11:27:49;26.48;;;19.45;;
21521;SDS011;10922;45.572;10.002;2023-01-16T11:30:20;27.73;;;20.57;;
21521;SDS011;10922;45.572;10.002;2023-01-16T11:32:51;30.45;;;20.77;;
21521;SDS011;10922;45.572;10.002;2023-01-16T11:35:23;27.70;;;20.50;;
21521;SDS011;10922;45.572;10.002;2023-01-16T11:37:58;29.88;;;20.50;;
21521;SDS011;10922;45.572;10.002;2023-01-16T11:40:27;30.40;;;21.30;;
21521;SDS011;10922;45.572;10.002;2023-01-16T11:42:58;29.30;;;21.37;;
21521;SDS011;10922;45.572;10.002;2023-01-16T11:45:55;26.92;;;20.88;;
21521;SDS011;10922;45.572;10.002;2023-01-16T11:48:27;26.38;;;18.45;;
21521;SDS011;10922;45.572;10.002;2023-01-16T11:50:58;21.92;;;16.15;;
21521;SDS011;10922;45.572;10.002;2023-01-16T11:53:31;18.38;;;14.07;;
21521;SDS011;10922;45.572;10.002;2023-01-16T12:04:22;18.15;;;13.65;;
21521;SDS011;10922;45.572;10.002;2023-01-16T12:21:03;18.80;;;14.63;;
21521;SDS011;10922;45.572;10.002;2023-01-16T12:26:21;19.92;;;14.82;;
21521;SDS011;10922;45.572;10.002;2023-01-16T12:29:01;20.52;;;15.30;;
21521;SDS011;10922;45.572;10.002;2023-01-16T12:42:05;23.70;;;16.97;;
21521;SDS011;10922;45.572;10.002;2023-01-16T12:48:08;20.08;;;14.75;;
21521;SDS011;10922;45.572;10.002;2023-01-16T12:59:30;24.05;;;16.35;;
21521;SDS011;10922;45.572;10.002;2023-01-16T13:10:33;23.17;;;15.67;;
21521;SDS011;10922;45.572;10.002;2023-01-16T13:13:30;21.67;;;15.68;;
21521;SDS011;10922;45.572;10.002;2023-01-16T13:18:56;22.75;;;15.35;;
21521;SDS011;10922;45.572;10.002;2023-01-16T13:21:39;23.13;;;15.70;;
21521;SDS011;10922;45.572;10.002;2023-01-16T13:24:30;22.33;;;15.20;;
21521;SDS011;10922;45.572;10.002;2023-01-16T13:27:22;22.38;;;15.18;;
21521;SDS011;10922;45.572;10.002;2023-01-16T13:29:59;21.92;;;15.32;;
21521;SDS011;10922;45.572;10.002;2023-01-16T13:32:33;20.45;;;14.35;;
21521;SDS011;10922;45.572;10.002;2023-01-16T13:35:17;18.63;;;13.38;;
21521;SDS011;10922;45.572;10.002;2023-01-16T13:38:02;16.42;;;11.68;;
21521;SDS011;10922;45.572;10.002;2023-01-16T13:41:20;17.47;;;11.40;;
21521;SDS011;10922;45.572;10.002;2023-01-16T13:44:39;16.58;;;11.00;;
21521;SDS011;10922;45.572;10.002;2023-01-16T13:47:08;15.20;;;11.32;;
21521;SDS011;10922;45.572;10.002;2023-01-16T13:50:01;15.40;;;11.07;;
21521;SDS011;10922;45.572;10.002;2023-01-16T13:52:48;16.33;;;11.20;;
21521;SDS011;10922;45.572;10.002;2023-01-16T13:55:20;17.58;;;11.70;;
21521;SDS011;10922;45.572;10.002;2023-01-16T13:57:54;16.35;;;11.35;;
21521;SDS011;10922;45.572;10.002;2023-01-16T14:00:32;14.60;;;11.23;;
21521;SDS011;10922;45.572;10.002;2023-01-16T14:05:54;19.40;;;12.03;;
21521;SDS011;10922;45.572;10.002;2023-01-16T14:08:50;19.35;;;13.30;;
21521;SDS011;10922;45.572;10.002;2023-01-16T14:17:12;17.83;;;12.10;;
21521;SDS011;10922;45.572;10.002;2023-01-16T14:19:41;17.77;;;12.27;;
21521;SDS011;10922;45.572;10.002;2023-01-16T14:23:02;17.17;;;11.60;;
21521;SDS011;10922;45.572;10.002;2023-01-16T14:25:13;19.58;;;11.80;;
21521;SDS011;10922;45.572;10.002;2023-01-16T14:27:48;16.60;;;11.48;;
21521;SDS011;10922;45.572;10.002;2023-01-16T14:30:17;18.17;;;11.60;;
21521;SDS011;10922;45.572;10.002;2023-01-16T14:32:51;15.80;;;11.25;;
21521;SDS011;10922;45.572;10.002;2023-01-16T14:35:20;16.65;;;11.18;;
21521;SDS011;10922;45.572;10.002;2023-01-16T14:38:06;17.00;;;12.13;;
21521;SDS011;10922;45.572;10.002;2023-01-16T14:40:46;20.00;;;13.17;;
21521;SDS011;10922;45.572;10.002;2023-01-16T14:50:13;17.92;;;11.32;;
21521;SDS011;10922;45.572;10.002;2023-01-16T14:53:04;11.57;;;8.88;;
21521;SDS011;10922;45.572;10.002;2023-01-16T14:56:01;12.20;;;8.50;;
21521;SDS011;10922;45.572;10.002;2023-01-16T14:58:45;12.57;;;8.43;;
21521;SDS011;10922;45.572;10.002;2023-01-16T15:01:23;11.05;;;7.97;;
21521;SDS011;10922;45.572;10.002;2023-01-16T15:04:11;10.40;;;7.72;;
21521;SDS011;10922;45.572;10.002;2023-01-16T15:06:42;9.50;;;7.20;;
21521;SDS011;10922;45.572;10.002;2023-01-16T15:09:16;9.07;;;6.93;;
21521;SDS011;10922;45.572;10.002;2023-01-16T15:11:47;7.10;;;5.85;;
21521;SDS011;10922;45.572;10.002;2023-01-16T15:14:23;7.97;;;6.10;;
21521;SDS011;10922;45.572;10.002;2023-01-16T15:20:15;4.60;;;4.20;;
21521;SDS011;10922;45.572;10.002;2023-01-16T15:23:06;6.18;;;4.53;;
21521;SDS011;10922;45.572;10.002;2023-01-16T15:31:36;5.13;;;3.95;;
21521;SDS011;10922;45.572;10.002;2023-01-16T15:39:26;6.20;;;5.07;;
21521;SDS011;10922;45.572;10.002;2023-01-16T15:42:22;6.68;;;4.88;;
21521;SDS011;10922;45.572;10.002;2023-01-16T15:48:02;7.47;;;5.13;;
21521;SDS011;10922;45.572;10.002;2023-01-16T15:53:23;6.50;;;5.67;;
21521;SDS011;10922;45.572;10.002;2023-01-16T15:55:50;10.07;;;6.82;;
21521;SDS011;10922;45.572;10.002;2023-01-16T15:58:21;11.63;;;8.27;;
21521;SDS011;10922;45.572;10.002;2023-01-16T16:00:58;15.70;;;10.80;;
21521;SDS011;10922;45.572;10.002;2023-01-16T16:03:29;18.63;;;11.05;;
21521;SDS011;10922;45.572;10.002;2023-01-16T16:06:08;16.50;;;11.40;;
21521;SDS011;10922;45.572;10.002;2023-01-16T16:08:39;16.48;;;12.10;;
21521;SDS011;10922;45.572;10.002;2023-01-16T16:11:13;19.55;;;13.15;;
21521;SDS011;10922;45.572;10.002;2023-01-16T16:14:02;17.20;;;13.07;;
21521;SDS011;10922;45.572;10.002;2023-01-16T16:16:59;17.73;;;13.13;;
21521;SDS011;10922;45.572;10.002;2023-01-16T16:19:47;19.77;;;13.85;;
21521;SDS011;10922;45.572;10.002;2023-01-16T16:22:16;20.75;;;14.65;;
21521;SDS011;10922;45.572;10.002;2023-01-16T16:25:08;19.73;;;14.15;;
21521;SDS011;10922;45.572;10.002;2023-01-16T16:27:58;20.67;;;14.20;;
21521;SDS011;10922;45.572;10.002;2023-01-16T16:30:27;19.50;;;13.53;;
21521;SDS011;10922;45.572;10.002;2023-01-16T16:32:53;20.98;;;13.75;;
21521;SDS011;10922;45.572;10.002;2023-01-16T16:35:23;14.73;;;10.07;;
21521;SDS011;10922;45.572;10.002;2023-01-16T16:37:53;7.28;;;6.35;;
21521;SDS011;10922;45.572;10.002;2023-01-16T16:40:20;6.37;;;5.37;;
21521;SDS011;10922;45.572;10.002;2023-01-16T16:42:49;8.07;;;6.00;;
21521;SDS011;10922;45.572;10.002;2023-01-16T16:51:09;8.85;;;7.00;;
21521;SDS011;10922;45.572;10.002;2023-01-16T16:53:46;25.00;;;16.92;;
21521;SDS011;10922;45.572;10.002;2023-01-16T16:56:14;9.07;;;7.77;;
21521;SDS011;10922;45.572;10.002;2023-01-16T16:58:46;6.82;;;5.82;;
21521;SDS011;10922;45.572;10.002;2023-01-16T17:01:17;6.88;;;6.15;;
21521;SDS011;10922;45.572;10.002;2023-01-16T17:03:45;7.00;;;6.30;;
21521;SDS011;10922;45.572;10.002;2023-01-16T17:06:15;7.55;;;6.00;;
21521;SDS011;10922;45.572;10.002;2023-01-16T17:08:43;7.95;;;6.40;;
21521;SDS011;10922;45.572;10.002;2023-01-16T17:11:12;14.03;;;11.23;;
21521;SDS011;10922;45.572;10.002;2023-01-16T17:13:39;16.10;;;12.98;;
21521;SDS011;10922;45.572;10.002;2023-01-16T17:16:05;18.30;;;14.07;;
21521;SDS011;10922;45.572;10.002;2023-01-16T17:18:43;18.38;;;14.52;;
21521;SDS011;10922;45.572;10.002;2023-01-16T17:21:18;17.90;;;15.13;;
21521;SDS011;10922;45.572;10.002;2023-01-16T17:23:44;21.90;;;15.77;;
21521;SDS011;10922;45.572;10.002;2023-01-16T17:26:13;19.52;;;15.27;;
21521;SDS011;10922;45.572;10.002;2023-01-16T17:28:42;17.77;;;14.88;;
21521;SDS011;10922;45.572;10.002;2023-01-16T17:31:12;15.23;;;12.13;;
21521;SDS011;10922;45.572;10.002;2023-01-16T17:33:39;15.52;;;13.23;;
21521;SDS011;10922;45.572;10.002;2023-01-16T17:36:05;14.13;;;11.98;;